createdAt,value
2019-01-23T11:55:39.484Z,47.80
2019-01-23T11:58:09.893Z,44.80
2019-01-23T12:00:40.168Z,45.50
2019-01-23T12:03:10.384Z,46.10
2019-01-23T12:05:40.608Z,46.50
2019-01-23T12:08:10.516Z,46.50
2019-01-23T12:10:40.723Z,46.80
2019-01-23T12:13:10.935Z,46.70
2019-01-23T12:15:41.232Z,46.90
2019-01-23T12:18:11.459Z,47.00
2019-01-23T12:20:41.792Z,47.00
2019-01-23T12:23:12.089Z,47.10
2019-01-23T12:25:42.304Z,47.50
2019-01-23T12:28:12.538Z,47.20
2019-01-23T12:30:42.760Z,47.30
2019-01-23T12:33:12.968Z,47.10
2019-01-23T12:35:43.183Z,47.00
2019-01-23T12:38:13.388Z,46.90
2019-01-23T12:40:43.058Z,46.90
2019-01-23T12:43:13.324Z,47.00
2019-01-23T12:45:43.544Z,47.10
2019-01-23T12:48:13.764Z,47.30
2019-01-23T12:50:43.995Z,47.40
2019-01-23T12:53:14.400Z,47.30
2019-01-23T12:55:44.623Z,47.30
2019-01-23T12:58:14.848Z,47.20
2019-01-23T13:00:45.080Z,47.20
2019-01-23T13:03:15.297Z,47.10
2019-01-23T13:05:45.523Z,47.20
2019-01-23T13:08:15.730Z,47.10
2019-01-23T13:10:46.029Z,47.10
2019-01-23T13:13:16.332Z,47.10
2019-01-23T13:15:46.562Z,47.10
2019-01-23T13:18:16.778Z,47.10
2019-01-23T13:20:47.002Z,47.10
2019-01-23T13:23:19.851Z,47.30
2019-01-23T13:25:49.135Z,47.00
2019-01-23T13:28:20.560Z,47.00
2019-01-23T13:30:50.764Z,47.00
2019-01-23T13:33:21.049Z,47.00
2019-01-23T13:35:51.281Z,47.00
2019-01-23T13:38:21.572Z,47.10
2019-01-23T13:40:51.776Z,47.10
2019-01-23T13:43:22.002Z,47.10
2019-01-23T13:45:52.232Z,46.90
2019-01-23T13:48:22.454Z,47.00
2019-01-23T13:50:52.676Z,47.10
2019-01-23T13:53:22.903Z,47.10
2019-01-23T13:55:53.124Z,46.90
2019-01-23T13:58:23.382Z,47.10
2019-01-23T14:00:53.604Z,47.10
2019-01-23T14:03:23.915Z,47.10
2019-01-23T14:05:54.134Z,47.10
2019-01-23T14:08:24.350Z,47.20
2019-01-23T14:10:55.570Z,47.30
2019-01-23T14:13:25.816Z,47.20
2019-01-23T14:15:56.052Z,47.80
2019-01-23T14:18:26.291Z,47.50
2019-01-23T14:23:26.248Z,46.20
2019-01-23T17:14:20.421Z,48.60
2019-01-23T17:16:50.165Z,49.00
2019-01-23T17:19:19.815Z,48.90
2019-01-23T17:21:49.473Z,48.80
2019-01-23T17:24:19.213Z,48.80
2019-01-23T17:26:49.448Z,48.90
2019-01-23T17:29:19.116Z,48.70
2019-01-23T17:31:48.786Z,48.80
2019-01-23T17:34:18.450Z,49.30
2019-01-23T17:36:48.108Z,48.40
2019-01-23T17:39:17.768Z,48.20
2019-01-23T17:41:47.430Z,48.00
2019-01-23T17:44:18.183Z,48.10
2019-01-23T17:46:48.933Z,48.10
2019-01-23T17:49:19.156Z,48.10
2019-01-23T17:51:48.807Z,48.00
2019-01-23T17:54:18.772Z,48.00
2019-01-23T17:56:49.471Z,47.90
2019-01-23T17:59:19.584Z,47.90
2019-01-23T18:01:49.312Z,47.90
2019-01-23T18:04:18.973Z,47.80
2019-01-23T18:06:48.624Z,47.70
2019-01-23T18:09:18.845Z,47.80
2019-01-23T18:11:48.496Z,47.70
2019-01-23T18:14:18.153Z,47.70
2019-01-23T18:16:48.379Z,47.80
2019-01-23T18:19:18.620Z,47.70
2019-01-23T18:21:48.277Z,47.70
2019-01-23T18:24:17.928Z,47.70
2019-01-23T18:26:47.579Z,48.20
2019-01-23T18:29:17.228Z,47.60
2019-01-23T18:31:47.026Z,47.60
2019-01-23T18:34:22.888Z,47.60
2019-01-23T18:37:04.428Z,47.60
2019-01-23T18:39:43.321Z,47.50
2019-01-23T18:42:36.048Z,47.50
2019-01-23T18:45:11.743Z,47.50
2019-01-23T18:47:59.556Z,47.40
2019-01-23T18:50:51.196Z,47.40
2019-01-23T18:53:20.849Z,48.00
2019-01-23T18:55:50.501Z,47.30
2019-01-23T18:58:20.159Z,47.40
2019-01-23T19:00:49.805Z,47.30
2019-01-23T19:03:19.457Z,47.30
2019-01-23T19:05:49.106Z,47.30
2019-01-23T19:08:19.338Z,47.20
2019-01-23T19:10:48.994Z,47.30
2019-01-23T19:13:18.653Z,47.40
2019-01-23T19:15:48.956Z,47.40
2019-01-23T19:18:18.617Z,47.20
2019-01-23T19:20:48.259Z,47.20
2019-01-23T19:23:17.944Z,47.20
2019-01-23T19:25:47.971Z,47.20
2019-01-23T19:28:18.898Z,47.20
2019-01-23T19:30:49.720Z,47.30
2019-01-23T19:33:19.364Z,47.20
2019-01-23T19:35:49.026Z,47.30
2019-01-23T19:38:19.227Z,47.40
2019-01-23T19:40:48.904Z,47.40
2019-01-23T19:43:18.589Z,47.40
2019-01-23T19:45:48.241Z,47.50
2019-01-23T19:48:17.938Z,47.50
2019-01-23T19:50:47.616Z,47.50
2019-01-23T19:53:17.269Z,47.70
2019-01-23T19:55:46.931Z,47.70
2019-01-23T19:58:16.617Z,47.90
2019-01-23T20:00:46.278Z,47.90
2019-01-23T20:03:20.440Z,48.00
2019-01-23T20:05:47.306Z,48.10
2019-01-23T20:08:16.975Z,48.10
2019-01-23T20:10:46.668Z,48.10
2019-01-23T20:13:16.321Z,48.10
2019-01-23T20:15:46.005Z,48.20
2019-01-23T20:18:15.664Z,48.20
2019-01-23T20:20:45.360Z,48.80
2019-01-23T20:23:15.017Z,48.30
2019-01-23T20:25:45.848Z,49.00
2019-01-23T20:28:15.520Z,48.40
2019-01-23T20:30:45.256Z,48.40
2019-01-23T20:33:14.928Z,48.50
2019-01-23T20:35:44.592Z,48.50
2019-01-23T20:38:14.267Z,48.50
2019-01-23T20:40:43.936Z,48.70
2019-01-23T20:43:13.604Z,48.70
2019-01-23T20:45:43.289Z,49.30
2019-01-23T20:48:12.961Z,48.80
2019-01-23T20:50:42.630Z,48.90
2019-01-23T20:53:12.288Z,48.90
2019-01-23T20:55:42.277Z,48.90
2019-01-23T20:58:12.292Z,49.00
2019-01-23T21:00:42.040Z,49.10
2019-01-23T21:03:12.561Z,49.00
2019-01-23T21:05:42.221Z,49.00
2019-01-23T21:08:11.885Z,49.10
2019-01-23T21:10:41.560Z,49.20
2019-01-23T21:13:11.220Z,49.20
2019-01-23T21:15:40.876Z,49.30
2019-01-23T21:18:10.545Z,49.30
2019-01-23T21:20:41.480Z,49.30
2019-01-23T21:23:11.140Z,49.30
2019-01-23T21:25:40.802Z,49.40
2019-01-23T21:28:10.465Z,49.40
2019-01-23T21:30:40.131Z,49.50
2019-01-23T21:33:10.881Z,49.50
2019-01-23T21:35:40.547Z,49.40
2019-01-23T21:38:10.213Z,49.40
2019-01-23T21:40:39.865Z,49.30
2019-01-23T21:43:09.537Z,49.40
2019-01-23T21:45:39.198Z,49.40
2019-01-23T21:48:08.868Z,49.50
2019-01-23T21:50:38.528Z,49.40
2019-01-23T21:53:08.192Z,49.40
2019-01-23T21:55:37.849Z,49.50
2019-01-23T21:58:07.504Z,49.40
2019-01-23T22:00:40.105Z,49.40
2019-01-23T22:03:11.100Z,49.50
2019-01-23T22:05:40.764Z,49.60
2019-01-23T22:08:10.516Z,49.60
2019-01-23T22:10:41.450Z,49.70
2019-01-23T22:13:11.105Z,49.80
2019-01-23T22:15:40.755Z,50.00
2019-01-23T22:18:10.417Z,49.90
2019-01-23T22:20:40.084Z,49.90
2019-01-23T22:23:09.741Z,50.00
2019-01-23T22:25:39.397Z,50.00
2019-01-23T22:28:09.052Z,50.10
2019-01-23T22:30:38.771Z,50.00
2019-01-23T22:33:08.497Z,50.10
2019-01-23T22:35:38.159Z,50.10
2019-01-23T22:38:07.820Z,50.20
2019-01-23T22:40:38.692Z,50.10
2019-01-23T22:43:14.836Z,50.20
2019-01-23T22:45:39.783Z,50.20
2019-01-23T22:48:09.436Z,50.20
2019-01-23T22:50:39.093Z,50.20
2019-01-23T22:53:08.752Z,50.30
2019-01-23T22:55:38.486Z,50.30
2019-01-23T22:58:08.249Z,50.40
2019-01-23T23:00:44.731Z,50.20
2019-01-23T23:03:15.519Z,50.30
2019-01-23T23:05:45.172Z,50.40
2019-01-23T23:08:14.827Z,50.40
2019-01-23T23:10:44.477Z,50.40
2019-01-23T23:13:14.132Z,50.40
2019-01-23T23:15:43.788Z,50.40
2019-01-23T23:18:13.450Z,50.40
2019-01-23T23:20:43.107Z,50.40
2019-01-23T23:23:12.757Z,50.40
2019-01-23T23:25:42.407Z,50.40
2019-01-23T23:28:12.137Z,50.40
2019-01-23T23:30:41.865Z,50.40
2019-01-23T23:33:11.515Z,50.40
2019-01-23T23:35:41.167Z,50.50
2019-01-23T23:38:10.828Z,50.40
2019-01-23T23:40:40.595Z,50.40
2019-01-23T23:43:10.257Z,50.50
2019-01-23T23:45:39.903Z,50.40
2019-01-23T23:48:09.556Z,50.40
2019-01-23T23:50:39.211Z,50.50
2019-01-23T23:53:08.860Z,50.40
2019-01-23T23:55:38.524Z,50.50
2019-01-23T23:58:08.172Z,50.50
